sensor_id;sensor_type;location;lat;lon;timestamp;temperature;humidity
20325;DHT22;10320;49.482;11.256;2022-09-23T08:10:17;17.00;99.90
20325;DHT22;10320;49.482;11.256;2022-09-23T08:12:45;10.50;99.90
20325;DHT22;10320;49.482;11.256;2022-09-23T08:15:11;10.40;99.90
20325;DHT22;10320;49.482;11.256;2022-09-23T08:17:36;10.50;99.90
20325;DHT22;10320;49.482;11.256;2022-09-23T08:20:02;10.60;99.90
20325;DHT22;10320;49.482;11.256;2022-09-23T08:22:28;10.80;99.90
20325;DHT22;10320;49.482;11.256;2022-09-23T08:24:54;10.90;99.90
20325;DHT22;10320;49.482;11.256;2022-09-23T08:27:19;11.10;99.90
20325;DHT22;10320;49.482;11.256;2022-09-23T08:29:47;11.20;99.90
20325;DHT22;10320;49.482;11.256;2022-09-23T08:32:12;11.40;99.90
20325;DHT22;10320;49.482;11.256;2022-09-23T08:34:38;11.50;99.90
20325;DHT22;10320;49.482;11.256;2022-09-23T08:37:08;11.70;99.90
20325;DHT22;10320;49.482;11.256;2022-09-23T08:39:34;11.90;99.90
20325;DHT22;10320;49.482;11.256;2022-09-23T08:42:27;12.10;99.90
20325;DHT22;10320;49.482;11.256;2022-09-23T08:44:57;12.30;99.90
20325;DHT22;10320;49.482;11.256;2022-09-23T08:47:30;12.40;99.90
20325;DHT22;10320;49.482;11.256;2022-09-23T08:52:59;12.70;99.90
20325;DHT22;10320;49.482;11.256;2022-09-23T08:55:31;12.80;99.90
20325;DHT22;10320;49.482;11.256;2022-09-23T08:58:07;12.90;99.90
20325;DHT22;10320;49.482;11.256;2022-09-23T09:03:57;13.20;99.90
20325;DHT22;10320;49.482;11.256;2022-09-23T09:06:36;13.40;99.90
20325;DHT22;10320;49.482;11.256;2022-09-23T09:09:04;13.50;99.90
20325;DHT22;10320;49.482;11.256;2022-09-23T09:11:36;13.70;99.90
20325;DHT22;10320;49.482;11.256;2022-09-23T09:14:25;13.90;99.90
20325;DHT22;10320;49.482;11.256;2022-09-23T09:17:12;13.90;99.90
20325;DHT22;10320;49.482;11.256;2022-09-23T09:22:18;13.90;99.90
20325;DHT22;10320;49.482;11.256;2022-09-23T09:24:46;13.90;99.90
20325;DHT22;10320;49.482;11.256;2022-09-23T09:27:13;14.00;99.90
20325;DHT22;10320;49.482;11.256;2022-09-23T09:29:42;14.10;99.90
20325;DHT22;10320;49.482;11.256;2022-09-23T09:34:57;14.40;99.90
20325;DHT22;10320;49.482;11.256;2022-09-23T09:37:30;14.60;99.90
20325;DHT22;10320;49.482;11.256;2022-09-23T09:39:58;14.80;99.90
20325;DHT22;10320;49.482;11.256;2022-09-23T09:42:40;14.80;99.90
20325;DHT22;10320;49.482;11.256;2022-09-23T09:47:49;14.90;99.90
20325;DHT22;10320;49.482;11.256;2022-09-23T09:50:51;15.00;99.90
20325;DHT22;10320;49.482;11.256;2022-09-23T09:53:30;15.00;99.90
20325;DHT22;10320;49.482;11.256;2022-09-23T09:58:33;14.90;99.90
20325;DHT22;10320;49.482;11.256;2022-09-23T10:01:03;14.90;99.90
20325;DHT22;10320;49.482;11.256;2022-09-23T10:03:38;14.90;99.90
20325;DHT22;10320;49.482;11.256;2022-09-23T10:06:17;15.00;99.90
20325;DHT22;10320;49.482;11.256;2022-09-23T10:09:02;15.10;99.90
20325;DHT22;10320;49.482;11.256;2022-09-23T10:11:31;15.20;99.90
20325;DHT22;10320;49.482;11.256;2022-09-23T10:14:13;15.20;99.90
20325;DHT22;10320;49.482;11.256;2022-09-23T10:16:42;15.30;99.90
20325;DHT22;10320;49.482;11.256;2022-09-23T10:19:26;15.30;99.90
20325;DHT22;10320;49.482;11.256;2022-09-23T10:22:03;15.40;99.90
20325;DHT22;10320;49.482;11.256;2022-09-23T10:24:33;15.30;99.90
20325;DHT22;10320;49.482;11.256;2022-09-23T10:27:07;15.40;99.90
20325;DHT22;10320;49.482;11.256;2022-09-23T10:35:00;15.50;99.90
20325;DHT22;10320;49.482;11.256;2022-09-23T10:37:32;15.50;99.90
20325;DHT22;10320;49.482;11.256;2022-09-23T10:39:59;15.60;99.90
20325;DHT22;10320;49.482;11.256;2022-09-23T10:42:58;15.60;99.90
20325;DHT22;10320;49.482;11.256;2022-09-23T10:45:47;15.70;99.90
20325;DHT22;10320;49.482;11.256;2022-09-23T10:51:10;15.90;99.90
20325;DHT22;10320;49.482;11.256;2022-09-23T10:53:56;16.00;99.90
20325;DHT22;10320;49.482;11.256;2022-09-23T10:56:35;16.00;99.90
20325;DHT22;10320;49.482;11.256;2022-09-23T10:59:38;16.00;99.90
20325;DHT22;10320;49.482;11.256;2022-09-23T11:02:47;16.20;99.90
20325;DHT22;10320;49.482;11.256;2022-09-23T11:22:14;16.50;99.90
20325;DHT22;10320;49.482;11.256;2022-09-23T11:30:15;16.70;99.90
20325;DHT22;10320;49.482;11.256;2022-09-23T11:35:32;17.10;99.90
20325;DHT22;10320;49.482;11.256;2022-09-23T11:38:19;17.20;99.90
20325;DHT22;10320;49.482;11.256;2022-09-23T11:40:51;17.30;99.90
20325;DHT22;10320;49.482;11.256;2022-09-23T11:43:25;17.50;99.90
20325;DHT22;10320;49.482;11.256;2022-09-23T11:50:57;17.80;99.90
20325;DHT22;10320;49.482;11.256;2022-09-23T11:53:35;17.70;99.90
